Time;durP1;ratioP1;P1;durP2;ratioP2;P2;SDS_P1;SDS_P2;PMS_P1;PMS_P2;Temp;Humidity;BMP_temperature;BMP_pressure;BME280_temperature;BME280_humidity;BME280_pressure;Samples;Min_cycle;Max_cycle;Signal;HPM_P1;HPM_P2
2024/04/24 00:00:27;;;;;;;;;;;;;;;;;;5603813;25;20319;-75
2024/04/24 00:02:54;;;;;;;;;;;;;;;;;;5603399;25;19938;-75
2024/04/24 00:05:20;;;;;;;;;;;;;;;;;;5570110;25;19938;-75
2024/04/24 00:07:45;;;;;;;;;;;;;;;;;;5603793;25;19938;-75
2024/04/24 00:10:11;;;;;;;;;;;;;;;;;;5603292;25;19926;-76
2024/04/24 00:12:37;;;;;;;;;;;;;;;;;;5570078;25;20019;-75
2024/04/24 00:15:03;;;;;;;;;;;;;;;;;;5603221;25;19934;-75
2024/04/24 00:17:29;;;;;;;;;;;;;;;;;;5603601;25;19933;-75
2024/04/24 00:19:55;;;;;;;;;;;;;;;;;;5569970;25;19926;-75
2024/04/24 00:22:21;;;;;;;;;;;;;;;;;;5603025;25;19934;-75
2024/04/24 00:24:47;;;;;;;;;;;;;;;;;;5569967;25;20246;-75
2024/04/24 00:27:13;;;;;;;;;;;;;;;;;;5603625;25;19934;-74
2024/04/24 00:29:39;;;;;;;;;;;;;;;;;;5602742;25;19930;-74
2024/04/24 00:32:05;;;;;;;;;;;;;;;;;;5603208;25;19994;-73
2024/04/24 00:34:31;;;;;;;;;;;;;;;;;;5569629;25;20365;-75
2024/04/24 00:36:57;;;;;;;;;;;;;;;;;;5602981;25;19926;-75
2024/04/24 00:39:23;;;;;;;;;;;;;;;;;;5603369;25;19930;-76
2024/04/24 00:41:49;;;;;;;;;;;;;;;;;;5602072;25;20378;-76
2024/04/24 00:44:15;;;;;;;;;;;;;;;;;;5569169;25;19934;-75
2024/04/24 00:46:41;;;;;;;;;;;;;;;;;;5603094;25;19950;-74
2024/04/24 00:49:07;;;;;;;;;;;;;;;;;;5603071;25;20347;-75
2024/04/24 00:51:33;;;;;;;;;;;;;;;;;;5602458;25;20252;-74
2024/04/24 00:53:59;;;;;;;;;;;;;;;;;;5602554;25;19933;-75
2024/04/24 00:56:25;;;;;;;;;;;;;;;;;;5602628;25;19926;-76
2024/04/24 00:58:51;;;;;;;;;;;;;;;;;;5602095;25;20350;-75
2024/04/24 01:01:17;;;;;;;;;;;;;;;;;;5602530;25;19926;-75
2024/04/24 01:03:43;;;;;;;;;;;;;;;;;;5569355;25;19927;-74
2024/04/24 01:06:09;;;;;;;;;;;;;;;;;;5568379;25;20347;-74
2024/04/24 01:08:35;;;;;;;;;;;;;;;;;;5568857;25;20013;-74
2024/04/24 01:11:01;;;;;;;;;;;;;;;;;;5602314;25;20330;-74
2024/04/24 01:13:26;;;;;;;;;;;;;;;;;;5601845;25;19926;-75
2024/04/24 01:15:52;;;;;;;;;;;;;;;;;;5568863;25;19938;-75
2024/04/24 01:18:18;;;;;;;;;;;;;;;;;;5602222;25;19927;-75
2024/04/24 01:20:44;;;;;;;;;;;;;;;;;;5601788;25;19926;-74
2024/04/24 01:23:10;;;;;;;;;;;;;;;;;;5602054;25;19993;-75
2024/04/24 01:25:36;;;;;;;;;;;;;;;;;;5601675;25;20366;-74
2024/04/24 01:28:02;;;;;;;;;;;;;;;;;;5602033;25;19934;-74
2024/04/24 01:30:28;;;;;;;;;;;;;;;;;;5601962;25;20351;-74
2024/04/24 01:32:54;;;;;;;;;;;;;;;;;;5601484;25;19927;-73
2024/04/24 01:35:20;;;;;;;;;;;;;;;;;;5568280;25;19930;-74
2024/04/24 01:37:46;;;;;;;;;;;;;;;;;;5568425;25;19934;-75
2024/04/24 01:40:12;;;;;;;;;;;;;;;;;;5567922;25;19937;-75
2024/04/24 01:42:38;;;;;;;;;;;;;;;;;;5601732;25;19933;-74
2024/04/24 01:45:04;;;;;;;;;;;;;;;;;;5601743;25;19938;-74
2024/04/24 01:47:30;;;;;;;;;;;;;;;;;;5601356;25;20259;-75
2024/04/24 01:49:56;;;;;;;;;;;;;;;;;;5601651;25;19930;-74
2024/04/24 01:52:21;;;;;;;;;;;;;;;;;;5568153;25;19945;-75
2024/04/24 01:54:47;;;;;;;;;;;;;;;;;;5571400;25;19927;-75
2024/04/24 01:57:13;;;;;;;;;;;;;;;;;;5605854;25;19927;-75
2024/04/24 01:59:39;;;;;;;;;;;;;;;;;;5572125;25;19934;-74
2024/04/24 02:02:05;;;;;;;;;;;;;;;;;;5605181;25;19934;-74
2024/04/24 02:04:31;;;;;;;;;;;;;;;;;;5572130;25;19926;-73
2024/04/24 02:06:57;;;;;;;;;;;;;;;;;;5605520;25;19926;-74
2024/04/24 02:09:23;;;;;;;;;;;;;;;;;;5605251;25;19939;-74
2024/04/24 02:11:49;;;;;;;;;;;;;;;;;;5605535;25;19933;-75
2024/04/24 02:14:15;;;;;;;;;;;;;;;;;;5572042;25;19930;-75
2024/04/24 02:16:41;;;;;;;;;;;;;;;;;;5571463;25;20003;-74
2024/04/24 02:19:07;;;;;;;;;;;;;;;;;;5605706;25;20246;-75
2024/04/24 02:21:33;;;;;;;;;;;;;;;;;;5605551;25;19934;-74
2024/04/24 02:24:00;;;;;;;;;;;;;;;;;;5605039;25;19926;-74
2024/04/24 02:26:26;;;;;;;;;;;;;;;;;;5605347;25;19934;-74
2024/04/24 02:28:52;;;;;;;;;;;;;;;;;;5604858;25;19993;-74
2024/04/24 02:31:18;;;;;;;;;;;;;;;;;;5605200;25;19927;-74
2024/04/24 02:33:44;;;;;;;;;;;;;;;;;;5605108;25;19933;-73
2024/04/24 02:36:09;;;;;;;;;;;;;;;;;;5571187;25;19934;-73
2024/04/24 02:38:35;;;;;;;;;;;;;;;;;;5605063;25;19926;-74
2024/04/24 02:41:01;;;;;;;;;;;;;;;;;;5571624;25;20347;-74
2024/04/24 02:43:27;;;;;;;;;;;;;;;;;;5604605;25;20255;-74
2024/04/24 02:45:53;;;;;;;;;;;;;;;;;;5571466;25;19927;-74
2024/04/24 02:48:19;;;;;;;;;;;;;;;;;;5571377;25;19934;-74
2024/04/24 02:50:45;;;;;;;;;;;;;;;;;;5570766;25;20321;-74
2024/04/24 02:53:11;;;;;;;;;;;;;;;;;;5604559;25;19926;-74
2024/04/24 02:55:37;;;;;;;;;;;;;;;;;;5571156;25;20308;-74
2024/04/24 02:58:03;;;;;;;;;;;;;;;;;;5603929;25;19926;-74
2024/04/24 03:00:29;;;;;;;;;;;;;;;;;;5604477;25;19926;-74
2024/04/24 03:02:55;;;;;;;;;;;;;;;;;;5570835;25;20378;-73
2024/04/24 03:05:21;;;;;;;;;;;;;;;;;;5603324;25;20255;-73
2024/04/24 03:07:47;;;;;;;;;;;;;;;;;;5604420;25;19926;-73
2024/04/24 03:10:13;;;;;;;;;;;;;;;;;;5570811;25;19942;-73
2024/04/24 03:12:39;;;;;;;;;;;;;;;;;;5604095;25;19927;-74
2024/04/24 03:15:05;;;;;;;;;;;;;;;;;;5604151;25;19926;-73
2024/04/24 03:17:31;;;;;;;;;;;;;;;;;;5604144;25;19933;-73
2024/04/24 03:19:57;;;;;;;;;;;;;;;;;;5603785;25;19926;-73
2024/04/24 03:22:22;;;;;;;;;;;;;;;;;;5604172;25;20322;-73
2024/04/24 03:24:48;;;;;;;;;;;;;;;;;;5570616;25;19934;-73
2024/04/24 03:27:14;;;;;;;;;;;;;;;;;;5569971;25;19926;-74
2024/04/24 03:29:40;;;;;;;;;;;;;;;;;;5603910;25;19939;-74
2024/04/24 03:32:06;;;;;;;;;;;;;;;;;;5569983;25;19933;-73
2024/04/24 03:34:32;;;;;;;;;;;;;;;;;;5570263;25;19926;-74
2024/04/24 03:36:58;;;;;;;;;;;;;;;;;;5603904;25;19933;-73
2024/04/24 03:39:24;;;;;;;;;;;;;;;;;;5569924;25;19927;-74
2024/04/24 03:41:50;;;;;;;;;;;;;;;;;;5570264;25;20346;-73
2024/04/24 03:44:16;;;;;;;;;;;;;;;;;;5603800;25;19938;-73
2024/04/24 03:46:42;;;;;;;;;;;;;;;;;;5603330;25;19926;-73
2024/04/24 03:49:08;;;;;;;;;;;;;;;;;;5603656;25;19926;-73
2024/04/24 03:51:34;;;;;;;;;;;;;;;;;;5603633;25;19927;-74
2024/04/24 03:54:00;;;;;;;;;;;;;;;;;;5602784;25;20255;-74
2024/04/24 03:56:26;;;;;;;;;;;;;;;;;;5570118;25;19926;-74
2024/04/24 03:58:52;;;;;;;;;;;;;;;;;;5603610;25;19926;-74
2024/04/24 04:01:17;;;;;;;;;;;;;;;;;;5602900;25;19993;-73
2024/04/24 04:03:43;;;;;;;;;;;;;;;;;;5603524;25;19934;-73
2024/04/24 04:06:09;;;;;;;;;;;;;;;;;;5603357;25;19937;-73
2024/04/24 04:08:35;;;;;;;;;;;;;;;;;;5569493;25;19926;-74
2024/04/24 04:11:01;;;;;;;;;;;;;;;;;;5569725;25;19938;-74
2024/04/24 04:13:27;;;;;;;;;;;;;;;;;;5603165;25;19926;-74
2024/04/24 04:15:53;;;;;;;;;;;;;;;;;;5601454;25;19926;-73
2024/04/24 04:18:19;;;;;;;;;;;;;;;;;;5602996;25;19926;-74
2024/04/24 04:20:45;;;;;;;;;;;;;;;;;;5569253;25;19993;-73
2024/04/24 04:23:12;;;;;;;;;;;;;;;;;;5569064;25;19927;-73
2024/04/24 04:25:38;;;;;;;;;;;;;;;;;;5602991;25;20244;-73
2024/04/24 04:28:04;;;;;;;;;;;;;;;;;;5569530;25;19933;-73
2024/04/24 04:30:30;;;;;;;;;;;;;;;;;;5602315;25;20373;-73
2024/04/24 04:32:56;;;;;;;;;;;;;;;;;;5566484;25;19926;-73
2024/04/24 04:35:22;;;;;;;;;;;;;;;;;;5598978;25;20054;-74
2024/04/24 04:37:48;;;;;;;;;;;;;;;;;;5599386;25;19926;-74
2024/04/24 04:40:14;;;;;;;;;;;;;;;;;;5598988;25;19958;-75
2024/04/24 04:42:40;;;;;;;;;;;;;;;;;;5598507;25;20357;-74
2024/04/24 04:45:06;;;;;;;;;;;;;;;;;;5566982;25;20299;-74
2024/04/24 04:47:32;;;;;;;;;;;;;;;;;;5598978;25;19935;-74
2024/04/24 04:49:58;;;;;;;;;;;;;;;;;;5598683;25;19954;-74
2024/04/24 04:52:23;;;;;;;;;;;;;;;;;;5598543;25;19951;-75
2024/04/24 04:54:49;;;;;;;;;;;;;;;;;;5565115;25;20235;-75
2024/04/24 04:57:15;;;;;;;;;;;;;;;;;;5598330;25;19926;-75
2024/04/24 04:59:41;;;;;;;;;;;;;;;;;;5598850;25;19927;-74
2024/04/24 05:02:07;;;;;;;;;;;;;;;;;;5565823;25;19934;-74
2024/04/24 05:04:33;;;;;;;;;;;;;;;;;;5568309;25;20310;-74
2024/04/24 05:06:59;;;;;;;;;;;;;;;;;;5602108;25;19926;-74
2024/04/24 05:09:25;;;;;;;;;;;;;;;;;;5602106;25;19993;-75
2024/04/24 05:11:51;;;;;;;;;;;;;;;;;;5568620;25;19934;-75
2024/04/24 05:14:17;;;;;;;;;;;;;;;;;;5602215;25;19930;-76
2024/04/24 05:16:43;;;;;;;;;;;;;;;;;;5568920;25;20430;-76
2024/04/24 05:19:09;;;;;;;;;;;;;;;;;;5568336;25;19926;-76
2024/04/24 05:21:35;;;;;;;;;;;;;;;;;;5568757;25;20002;-74
2024/04/24 05:24:01;;;;;;;;;;;;;;;;;;5601901;25;19933;-74
2024/04/24 05:29:12;;;;;;;;;;;;;;;;;;5605865;25;19929;-74
2024/04/24 05:31:38;;;;;;;;;;;;;;;;;;5571733;25;20432;-74
2024/04/24 05:34:04;;;;;;;;;;;;;;;;;;5571653;25;19934;-74
2024/04/24 05:36:30;;;;;;;;;;;;;;;;;;5605493;25;19926;-75
2024/04/24 05:38:56;;;;;;;;;;;;;;;;;;5604453;25;19933;-74
2024/04/24 05:41:22;;;;;;;;;;;;;;;;;;5605498;25;20224;-74
2024/04/24 05:43:48;;;;;;;;;;;;;;;;;;5572334;25;19931;-75
2024/04/24 05:46:13;;;;;;;;;;;;;;;;;;5604978;25;19931;-76
2024/04/24 05:48:39;;;;;;;;;;;;;;;;;;5572015;25;19934;-75
2024/04/24 05:51:05;;;;;;;;;;;;;;;;;;5605480;25;19927;-75
2024/04/24 05:53:31;;;;;;;;;;;;;;;;;;5604529;25;19993;-75
2024/04/24 05:55:57;;;;;;;;;;;;;;;;;;5603550;25;19926;-75
2024/04/24 05:58:23;;;;;;;;;;;;;;;;;;5603122;25;20220;-75
2024/04/24 06:00:49;;;;;;;;;;;;;;;;;;5569396;25;19927;-75
2024/04/24 06:03:15;;;;;;;;;;;;;;;;;;5604286;25;19926;-75
2024/04/24 06:05:41;;;;;;;;;;;;;;;;;;5604197;25;19933;-76
2024/04/24 06:08:07;;;;;;;;;;;;;;;;;;5570249;25;19934;-75
2024/04/24 06:10:33;;;;;;;;;;;;;;;;;;5604547;25;19959;-75
2024/04/24 06:12:59;;;;;;;;;;;;;;;;;;5604840;25;19933;-74
2024/04/24 06:15:26;;;;;;;;;;;;;;;;;;5604418;25;20262;-76
2024/04/24 06:17:52;;;;;;;;;;;;;;;;;;5605005;25;20333;-75
2024/04/24 06:20:18;;;;;;;;;;;;;;;;;;5571501;25;19926;-75
2024/04/24 06:22:44;;;;;;;;;;;;;;;;;;5604362;25;19974;-75
2024/04/24 06:25:10;;;;;;;;;;;;;;;;;;5604726;25;19974;-76
2024/04/24 06:27:36;;;;;;;;;;;;;;;;;;5604480;25;19927;-74
2024/04/24 06:30:02;;;;;;;;;;;;;;;;;;5603897;25;19950;-74
2024/04/24 06:32:28;;;;;;;;;;;;;;;;;;5604481;25;19938;-75
2024/04/24 06:34:54;;;;;;;;;;;;;;;;;;5604220;25;19926;-74
2024/04/24 06:37:20;;;;;;;;;;;;;;;;;;5604629;25;19933;-76
2024/04/24 06:39:46;;;;;;;;;;;;;;;;;;5603736;25;19927;-75
2024/04/24 06:42:12;;;;;;;;;;;;;;;;;;5570926;25;19979;-75
2024/04/24 06:44:38;;;;;;;;;;;;;;;;;;5570926;25;20354;-76
2024/04/24 06:47:04;;;;;;;;;;;;;;;;;;5604811;25;19927;-76
2024/04/24 06:49:30;;;;;;;;;;;;;;;;;;5604272;25;19927;-75
2024/04/24 06:51:56;;;;;;;;;;;;;;;;;;5604628;25;19926;-75
2024/04/24 06:54:22;;;;;;;;;;;;;;;;;;5604372;25;19927;-77
2024/04/24 06:56:48;;;;;;;;;;;;;;;;;;5571154;25;19934;-77
2024/04/24 06:59:14;;;;;;;;;;;;;;;;;;5571548;25;19933;-76
2024/04/24 07:01:40;;;;;;;;;;;;;;;;;;5604787;25;19926;-75
2024/04/24 07:04:06;;;;;;;;;;;;;;;;;;5604206;25;19993;-77
2024/04/24 07:06:32;;;;;;;;;;;;;;;;;;5604709;25;19930;-74
2024/04/24 07:08:58;;;;;;;;;;;;;;;;;;5604355;25;19926;-75
2024/04/24 07:11:24;;;;;;;;;;;;;;;;;;5604067;25;20342;-76
2024/04/24 07:13:49;;;;;;;;;;;;;;;;;;5569302;25;20353;-75
2024/04/24 07:16:17;;;;;;;;;;;;;;;;;;5600614;25;19927;-77
2024/04/24 07:18:43;;;;;;;;;;;;;;;;;;5599947;25;20357;-76
2024/04/24 07:21:09;;;;;;;;;;;;;;;;;;5600136;25;20274;-76
2024/04/24 07:23:35;;;;;;;;;;;;;;;;;;5600430;25;19926;-75
2024/04/24 07:26:01;;;;;;;;;;;;;;;;;;5600006;25;19926;-75
2024/04/24 07:28:27;;;;;;;;;;;;;;;;;;5599446;25;19988;-75
2024/04/24 07:30:53;;;;;;;;;;;;;;;;;;5601185;25;19974;-75
2024/04/24 07:33:20;;;;;;;;;;;;;;;;;;5603373;25;19934;-74
2024/04/24 07:35:46;;;;;;;;;;;;;;;;;;5604030;25;20328;-76
2024/04/24 07:38:13;;;;;;;;;;;;;;;;;;5603535;25;20394;-76
2024/04/24 07:40:39;;;;;;;;;;;;;;;;;;5603966;25;19926;-76
2024/04/24 07:45:12;;;;;;;;;;;;;;;;;;5472086;26;19928;-77
2024/04/24 07:47:38;;;;;;;;;;;;;;;;;;5473069;26;20367;-76
2024/04/24 07:50:04;;;;;;;;;;;;;;;;;;5472825;26;20028;-77
2024/04/24 07:52:30;;;;;;;;;;;;;;;;;;5472683;26;19941;-74
2024/04/24 07:54:56;;;;;;;;;;;;;;;;;;5473351;26;19928;-76
2024/04/24 07:57:22;;;;;;;;;;;;;;;;;;5472993;26;19931;-75
2024/04/24 07:59:48;;;;;;;;;;;;;;;;;;5472163;26;19928;-75
2024/04/24 08:02:14;;;;;;;;;;;;;;;;;;5470588;26;19928;-75
2024/04/24 08:04:42;;;;;;;;;;;;;;;;;;5470354;26;19928;-74
2024/04/24 08:07:08;;;;;;;;;;;;;;;;;;5471832;26;19932;-75
2024/04/24 08:09:34;;;;;;;;;;;;;;;;;;5470585;26;19935;-75
2024/04/24 08:12:00;;;;;;;;;;;;;;;;;;5472584;26;19932;-75
2024/04/24 08:14:26;;;;;;;;;;;;;;;;;;5472057;26;20394;-76
2024/04/24 08:19:48;;;;;;;;;;;;;;;;;;5546852;25;19928;-76
2024/04/24 08:23:25;;;;;;;;;;;;;;;;;;5622313;25;19927;-75
2024/04/24 08:25:51;;;;;;;;;;;;;;;;;;5622195;25;19932;-75
2024/04/24 08:28:18;;;;;;;;;;;;;;;;;;5622074;25;20279;-75
2024/04/24 08:30:44;;;;;;;;;;;;;;;;;;5621742;25;20026;-75
2024/04/24 08:33:10;;;;;;;;;;;;;;;;;;5622084;25;20399;-75
2024/04/24 08:35:36;;;;;;;;;;;;;;;;;;5621457;25;19926;-75
2024/04/24 08:38:02;;;;;;;;;;;;;;;;;;5588229;25;20251;-75
2024/04/24 08:40:52;;;;;;;;;;;;;;;;;;5621950;25;20271;-75
2024/04/24 08:43:17;;;;;;;;;;;;;;;;;;5588068;25;19933;-75
2024/04/24 08:45:43;;;;;;;;;;;;;;;;;;5588377;25;19927;-75
2024/04/24 08:48:09;;;;;;;;;;;;;;;;;;5622047;25;19937;-76
2024/04/24 08:50:35;;;;;;;;;;;;;;;;;;5621667;25;19926;-74
2024/04/24 08:53:01;;;;;;;;;;;;;;;;;;5588021;25;20294;-75
2024/04/24 08:55:27;;;;;;;;;;;;;;;;;;5621962;25;19930;-74
2024/04/24 08:57:53;;;;;;;;;;;;;;;;;;5621676;25;20416;-76
2024/04/24 09:00:19;;;;;;;;;;;;;;;;;;5621715;25;19934;-74
2024/04/24 09:02:45;;;;;;;;;;;;;;;;;;5621292;25;20267;-75
2024/04/24 09:05:11;;;;;;;;;;;;;;;;;;5621767;25;20251;-75
2024/04/24 09:07:37;;;;;;;;;;;;;;;;;;5621456;25;19926;-75
2024/04/24 09:10:03;;;;;;;;;;;;;;;;;;5621037;25;19926;-75
2024/04/24 09:14:39;;;;;;;;;;;;;;;;;;5582533;25;19927;-74
2024/04/24 09:17:05;;;;;;;;;;;;;;;;;;5548643;25;19933;-74
2024/04/24 09:19:31;;;;;;;;;;;;;;;;;;5582798;25;19940;-74
2024/04/24 09:21:57;;;;;;;;;;;;;;;;;;5549457;25;20281;-74
2024/04/24 09:24:23;;;;;;;;;;;;;;;;;;5582470;25;19934;-74
2024/04/24 09:26:49;;;;;;;;;;;;;;;;;;5549726;25;19931;-73
2024/04/24 09:29:15;;;;;;;;;;;;;;;;;;5583140;25;19931;-74
2024/04/24 09:31:41;;;;;;;;;;;;;;;;;;5582936;25;19926;-74
2024/04/24 09:34:07;;;;;;;;;;;;;;;;;;5583197;25;19926;-74
2024/04/24 09:36:37;;;;;;;;;;;;;;;;;;5583342;25;19935;-75
2024/04/24 09:39:03;;;;;;;;;;;;;;;;;;5582965;25;20290;-74
2024/04/24 09:41:29;;;;;;;;;;;;;;;;;;5583403;25;19927;-74
2024/04/24 09:43:55;;;;;;;;;;;;;;;;;;5583402;25;19926;-74
2024/04/24 09:46:21;;;;;;;;;;;;;;;;;;5549990;25;19933;-73
2024/04/24 09:48:47;;;;;;;;;;;;;;;;;;5583362;25;19926;-73
2024/04/24 09:51:13;;;;;;;;;;;;;;;;;;5583444;25;19933;-74
2024/04/24 09:53:39;;;;;;;;;;;;;;;;;;5583022;25;19927;-74
2024/04/24 09:56:05;;;;;;;;;;;;;;;;;;5583252;25;19934;-74
2024/04/24 09:58:31;;;;;;;;;;;;;;;;;;5583074;25;19931;-74
2024/04/24 10:00:57;;;;;;;;;;;;;;;;;;5549386;25;20241;-74
2024/04/24 10:03:22;;;;;;;;;;;;;;;;;;5549996;25;19927;-75
2024/04/24 10:05:48;;;;;;;;;;;;;;;;;;5583378;25;19938;-75
2024/04/24 10:08:14;;;;;;;;;;;;;;;;;;5549176;25;19927;-74
2024/04/24 10:10:40;;;;;;;;;;;;;;;;;;5548302;25;20244;-74
2024/04/24 10:13:06;;;;;;;;;;;;;;;;;;5546769;25;20255;-75
2024/04/24 10:15:32;;;;;;;;;;;;;;;;;;5546816;25;20311;-74
2024/04/24 10:17:58;;;;;;;;;;;;;;;;;;5580378;25;19926;-74
2024/04/24 10:20:24;;;;;;;;;;;;;;;;;;5548771;25;19995;-74
2024/04/24 10:22:50;;;;;;;;;;;;;;;;;;5549046;25;19927;-75
2024/04/24 10:25:17;;;;;;;;;;;;;;;;;;5570854;25;20263;-73
2024/04/24 10:27:43;;;;;;;;;;;;;;;;;;5531735;25;20351;-74
2024/04/24 10:30:09;;;;;;;;;;;;;;;;;;5565513;25;19951;-74
2024/04/24 10:32:35;;;;;;;;;;;;;;;;;;5566796;25;20386;-74
2024/04/24 10:35:01;;;;;;;;;;;;;;;;;;5565962;25;19927;-74
2024/04/24 10:37:27;;;;;;;;;;;;;;;;;;5566366;25;19927;-74
2024/04/24 10:39:53;;;;;;;;;;;;;;;;;;5566715;25;20022;-75
2024/04/24 10:42:20;;;;;;;;;;;;;;;;;;5566142;25;19926;-74
2024/04/24 10:44:46;;;;;;;;;;;;;;;;;;5566547;25;19938;-75
2024/04/24 10:47:12;;;;;;;;;;;;;;;;;;5566334;25;20355;-74
2024/04/24 10:49:38;;;;;;;;;;;;;;;;;;5565692;25;20267;-75
2024/04/24 10:52:04;;;;;;;;;;;;;;;;;;5566129;25;19998;-76
2024/04/24 10:54:30;;;;;;;;;;;;;;;;;;5565863;25;19926;-75
2024/04/24 10:56:56;;;;;;;;;;;;;;;;;;5565587;25;19995;-75
2024/04/24 10:59:22;;;;;;;;;;;;;;;;;;5532814;25;19998;-75
2024/04/24 11:01:48;;;;;;;;;;;;;;;;;;5565591;25;19935;-75
2024/04/24 11:04:14;;;;;;;;;;;;;;;;;;5532435;25;19935;-75
2024/04/24 11:06:41;;;;;;;;;;;;;;;;;;5529102;25;19934;-76
2024/04/24 11:09:07;;;;;;;;;;;;;;;;;;5562304;25;20006;-76
2024/04/24 11:11:33;;;;;;;;;;;;;;;;;;5563301;25;19934;-76
2024/04/24 11:13:59;;;;;;;;;;;;;;;;;;5564669;25;20356;-75
2024/04/24 11:16:25;;;;;;;;;;;;;;;;;;5564891;25;20003;-76
2024/04/24 11:18:52;;;;;;;;;;;;;;;;;;5564915;25;19935;-76
2024/04/24 11:21:18;;;;;;;;;;;;;;;;;;5565485;25;19933;-76
2024/04/24 11:23:44;;;;;;;;;;;;;;;;;;5565237;25;20267;-75
2024/04/24 11:26:10;;;;;;;;;;;;;;;;;;5532618;25;19926;-75
2024/04/24 11:28:36;;;;;;;;;;;;;;;;;;5565619;25;19926;-75
2024/04/24 11:31:02;;;;;;;;;;;;;;;;;;5565151;25;19954;-75
2024/04/24 11:33:29;;;;;;;;;;;;;;;;;;5532777;25;19950;-76
2024/04/24 11:35:55;;;;;;;;;;;;;;;;;;5564365;25;20256;-76
2024/04/24 11:38:20;;;;;;;;;;;;;;;;;;5564775;25;19927;-77
2024/04/24 11:40:46;;;;;;;;;;;;;;;;;;5565741;25;19927;-77
2024/04/24 11:43:12;;;;;;;;;;;;;;;;;;5566103;25;19935;-77
2024/04/24 11:45:39;;;;;;;;;;;;;;;;;;5565707;25;19927;-76
2024/04/24 11:48:06;;;;;;;;;;;;;;;;;;5566378;25;19959;-76
2024/04/24 11:50:32;;;;;;;;;;;;;;;;;;5565920;25;19926;-76
2024/04/24 11:52:59;;;;;;;;;;;;;;;;;;5565814;25;20371;-76
2024/04/24 11:55:25;;;;;;;;;;;;;;;;;;5565902;25;20348;-77
2024/04/24 11:57:51;;;;;;;;;;;;;;;;;;5565414;25;19959;-77
2024/04/24 12:00:17;;;;;;;;;;;;;;;;;;5565010;25;19927;-77
2024/04/24 12:02:43;;;;;;;;;;;;;;;;;;5532449;25;19931;-74
2024/04/24 12:05:09;;;;;;;;;;;;;;;;;;5566148;25;19995;-77
2024/04/24 12:07:35;;;;;;;;;;;;;;;;;;5565807;25;19927;-76
2024/04/24 12:10:01;;;;;;;;;;;;;;;;;;5566151;25;20370;-77
2024/04/24 12:12:27;;;;;;;;;;;;;;;;;;5566573;25;20280;-77
2024/04/24 12:14:53;;;;;;;;;;;;;;;;;;5566739;25;19972;-75
2024/04/24 12:17:19;;;;;;;;;;;;;;;;;;5567046;25;19938;-77
2024/04/24 12:19:45;;;;;;;;;;;;;;;;;;5565799;25;19933;-77
2024/04/24 12:22:11;;;;;;;;;;;;;;;;;;5565686;25;19927;-75
2024/04/24 12:24:37;;;;;;;;;;;;;;;;;;5565640;25;19946;-76
2024/04/24 12:27:03;;;;;;;;;;;;;;;;;;5564935;25;19926;-75
2024/04/24 12:29:29;;;;;;;;;;;;;;;;;;5565305;25;19926;-75
2024/04/24 12:31:56;;;;;;;;;;;;;;;;;;5532065;25;19927;-76
2024/04/24 12:34:24;;;;;;;;;;;;;;;;;;5564621;25;19934;-76
2024/04/24 12:36:51;;;;;;;;;;;;;;;;;;5565333;25;19931;-77
2024/04/24 12:39:17;;;;;;;;;;;;;;;;;;5565644;25;20355;-77
2024/04/24 12:41:42;;;;;;;;;;;;;;;;;;5565335;25;19953;-77
2024/04/24 12:44:08;;;;;;;;;;;;;;;;;;5565411;25;19927;-77
2024/04/24 12:46:34;;;;;;;;;;;;;;;;;;5531917;25;19935;-76
2024/04/24 12:49:03;;;;;;;;;;;;;;;;;;5531279;25;19934;-76
2024/04/24 12:51:31;;;;;;;;;;;;;;;;;;5565506;25;20366;-76
2024/04/24 12:53:57;;;;;;;;;;;;;;;;;;5565344;25;19931;-77
2024/04/24 12:56:23;;;;;;;;;;;;;;;;;;5564654;25;19937;-77
2024/04/24 12:58:49;;;;;;;;;;;;;;;;;;5565138;25;19927;-76
2024/04/24 13:01:14;;;;;;;;;;;;;;;;;;5531498;25;19927;-75
2024/04/24 13:03:40;;;;;;;;;;;;;;;;;;5564344;25;19927;-76
2024/04/24 13:06:06;;;;;;;;;;;;;;;;;;5531811;25;20038;-77
2024/04/24 13:08:33;;;;;;;;;;;;;;;;;;5531622;25;20396;-75
2024/04/24 13:10:59;;;;;;;;;;;;;;;;;;5564323;25;19934;-75
2024/04/24 13:13:25;;;;;;;;;;;;;;;;;;5564195;25;19995;-77
2024/04/24 13:15:51;;;;;;;;;;;;;;;;;;5563727;25;20327;-76
2024/04/24 13:18:17;;;;;;;;;;;;;;;;;;5564756;25;19934;-76
2024/04/24 13:20:43;;;;;;;;;;;;;;;;;;5564391;25;19927;-77
2024/04/24 13:23:09;;;;;;;;;;;;;;;;;;5563699;25;19926;-76
2024/04/24 13:25:35;;;;;;;;;;;;;;;;;;5531279;25;19971;-75
2024/04/24 13:28:01;;;;;;;;;;;;;;;;;;5564087;25;19934;-75
2024/04/24 13:30:27;;;;;;;;;;;;;;;;;;5530549;25;19933;-75
2024/04/24 13:32:53;;;;;;;;;;;;;;;;;;5564846;25;19927;-75
2024/04/24 13:35:19;;;;;;;;;;;;;;;;;;5564625;25;19934;-76
2024/04/24 13:37:45;;;;;;;;;;;;;;;;;;5563507;25;19927;-77
2024/04/24 13:40:11;;;;;;;;;;;;;;;;;;5530895;25;20201;-77
2024/04/24 13:42:37;;;;;;;;;;;;;;;;;;5563818;25;19930;-76
2024/04/24 13:45:03;;;;;;;;;;;;;;;;;;5563355;25;19931;-76
2024/04/24 13:47:29;;;;;;;;;;;;;;;;;;5530785;25;20344;-76
2024/04/24 13:49:56;;;;;;;;;;;;;;;;;;5563616;25;20265;-76
2024/04/24 13:52:22;;;;;;;;;;;;;;;;;;5563053;25;19927;-76
2024/04/24 13:54:48;;;;;;;;;;;;;;;;;;5563574;25;19931;-77
2024/04/24 13:57:14;;;;;;;;;;;;;;;;;;5563559;25;19939;-77
2024/04/24 13:59:40;;;;;;;;;;;;;;;;;;5563702;25;19935;-75
2024/04/24 14:02:06;;;;;;;;;;;;;;;;;;5566885;25;19927;-75
2024/04/24 14:04:32;;;;;;;;;;;;;;;;;;5566765;25;19927;-73
2024/04/24 14:06:58;;;;;;;;;;;;;;;;;;5566568;25;19927;-75
2024/04/24 14:09:24;;;;;;;;;;;;;;;;;;5567107;25;19927;-75
2024/04/24 14:11:50;;;;;;;;;;;;;;;;;;5533726;25;20352;-77
2024/04/24 14:14:16;;;;;;;;;;;;;;;;;;5566632;25;20000;-75
2024/04/24 14:16:42;;;;;;;;;;;;;;;;;;5567340;25;19926;-75
2024/04/24 14:19:08;;;;;;;;;;;;;;;;;;5533732;25;19934;-76
2024/04/24 14:21:34;;;;;;;;;;;;;;;;;;5567240;25;19935;-75
2024/04/24 14:24:00;;;;;;;;;;;;;;;;;;5534239;25;19938;-75
2024/04/24 14:26:26;;;;;;;;;;;;;;;;;;5566820;25;19926;-76
2024/04/24 14:28:52;;;;;;;;;;;;;;;;;;5566964;25;19994;-75
2024/04/24 14:31:18;;;;;;;;;;;;;;;;;;5567285;25;19927;-75
2024/04/24 14:33:48;;;;;;;;;;;;;;;;;;5566315;25;20014;-74
2024/04/24 14:36:14;;;;;;;;;;;;;;;;;;5566921;25;19938;-75
2024/04/24 14:38:40;;;;;;;;;;;;;;;;;;5533875;25;19926;-76
2024/04/24 14:41:12;;;;;;;;;;;;;;;;;;5533505;25;19926;-75
2024/04/24 14:43:38;;;;;;;;;;;;;;;;;;5533922;25;19931;-76
2024/04/24 14:46:04;;;;;;;;;;;;;;;;;;5567067;25;20355;-75
2024/04/24 14:48:29;;;;;;;;;;;;;;;;;;5566514;25;19938;-76
2024/04/24 14:50:55;;;;;;;;;;;;;;;;;;5566891;25;19926;-76
2024/04/24 14:53:21;;;;;;;;;;;;;;;;;;5566547;25;20420;-76
2024/04/24 14:55:47;;;;;;;;;;;;;;;;;;5566333;25;20319;-76
2024/04/24 14:58:13;;;;;;;;;;;;;;;;;;5566788;25;19927;-75
2024/04/24 15:00:39;;;;;;;;;;;;;;;;;;5566500;25;19938;-75
2024/04/24 15:03:05;;;;;;;;;;;;;;;;;;5566205;25;20407;-74
2024/04/24 15:05:31;;;;;;;;;;;;;;;;;;5566417;25;20287;-75
2024/04/24 15:07:57;;;;;;;;;;;;;;;;;;5566510;25;19930;-75
2024/04/24 15:10:23;;;;;;;;;;;;;;;;;;5532706;25;19930;-76
2024/04/24 15:12:49;;;;;;;;;;;;;;;;;;5532597;25;20355;-76
2024/04/24 15:15:15;;;;;;;;;;;;;;;;;;5565917;25;20267;-75
2024/04/24 15:17:41;;;;;;;;;;;;;;;;;;5565840;25;19927;-75
2024/04/24 15:20:07;;;;;;;;;;;;;;;;;;5565799;25;19927;-76
2024/04/24 15:22:33;;;;;;;;;;;;;;;;;;5565682;25;19934;-75
2024/04/24 15:24:59;;;;;;;;;;;;;;;;;;5565923;25;19927;-75
2024/04/24 15:27:25;;;;;;;;;;;;;;;;;;5566330;25;19938;-75
2024/04/24 15:29:51;;;;;;;;;;;;;;;;;;5565528;25;20351;-75
2024/04/24 15:32:17;;;;;;;;;;;;;;;;;;5565977;25;19927;-75
2024/04/24 15:34:43;;;;;;;;;;;;;;;;;;5532828;25;20432;-75
2024/04/24 15:37:09;;;;;;;;;;;;;;;;;;5565481;25;19935;-75
2024/04/24 15:39:35;;;;;;;;;;;;;;;;;;5566008;25;19927;-75
2024/04/24 15:42:01;;;;;;;;;;;;;;;;;;5566072;25;19934;-75
2024/04/24 15:44:27;;;;;;;;;;;;;;;;;;5565527;25;19957;-75
2024/04/24 15:46:53;;;;;;;;;;;;;;;;;;5533041;25;19934;-75
2024/04/24 15:49:19;;;;;;;;;;;;;;;;;;5566022;25;19927;-75
2024/04/24 15:51:45;;;;;;;;;;;;;;;;;;5532595;25;19927;-75
2024/04/24 15:54:11;;;;;;;;;;;;;;;;;;5565812;25;19927;-75
2024/04/24 15:56:37;;;;;;;;;;;;;;;;;;5532699;25;19933;-75
2024/04/24 15:59:03;;;;;;;;;;;;;;;;;;5565338;25;19927;-76
2024/04/24 16:01:29;;;;;;;;;;;;;;;;;;5532587;25;19939;-75
2024/04/24 16:03:55;;;;;;;;;;;;;;;;;;5532457;25;19938;-75
2024/04/24 16:06:22;;;;;;;;;;;;;;;;;;5565331;25;19934;-75
2024/04/24 16:08:48;;;;;;;;;;;;;;;;;;5565351;25;19934;-77
2024/04/24 16:11:13;;;;;;;;;;;;;;;;;;5565370;25;19931;-75
2024/04/24 16:13:39;;;;;;;;;;;;;;;;;;5564479;25;19976;-77
2024/04/24 16:16:05;;;;;;;;;;;;;;;;;;5532324;25;19934;-76
2024/04/24 16:18:31;;;;;;;;;;;;;;;;;;5565099;25;19933;-76
2024/04/24 16:20:59;;;;;;;;;;;;;;;;;;5531565;25;20030;-76
2024/04/24 16:23:25;;;;;;;;;;;;;;;;;;5531201;25;19943;-76
2024/04/24 16:25:51;;;;;;;;;;;;;;;;;;5531509;25;20062;-75
2024/04/24 16:28:17;;;;;;;;;;;;;;;;;;5564851;25;19927;-75
2024/04/24 16:30:43;;;;;;;;;;;;;;;;;;5531658;25;19927;-75
2024/04/24 16:33:09;;;;;;;;;;;;;;;;;;5563983;25;19935;-76
2024/04/24 16:35:35;;;;;;;;;;;;;;;;;;5564974;25;20363;-76
2024/04/24 16:38:01;;;;;;;;;;;;;;;;;;5564993;25;19938;-75
2024/04/24 16:40:27;;;;;;;;;;;;;;;;;;5531397;25;19931;-76
2024/04/24 16:42:53;;;;;;;;;;;;;;;;;;5565028;25;19934;-76
2024/04/24 16:45:19;;;;;;;;;;;;;;;;;;5564658;25;19935;-76
2024/04/24 16:47:45;;;;;;;;;;;;;;;;;;5564474;25;19934;-77